createdAt,value
2023-04-29T00:00:05.584Z,92.5
2023-04-29T00:05:11.762Z,93.5
2023-04-29T00:10:17.797Z,92
2023-04-29T00:15:23.855Z,94
2023-04-29T00:20:29.953Z,92.5
2023-04-29T00:25:36.021Z,93.5
2023-04-29T00:30:42.143Z,94.5
2023-04-29T00:35:48.205Z,93.5
2023-04-29T00:40:54.310Z,93
2023-04-29T00:46:06.070Z,94.5
2023-04-29T00:51:17.765Z,93.5
2023-04-29T00:56:23.863Z,94
2023-04-29T01:01:29.970Z,94
2023-04-29T01:06:36.061Z,95
2023-04-29T01:11:42.156Z,94
2023-04-29T01:16:48.222Z,95
2023-04-29T01:21:54.341Z,95
2023-04-29T01:27:00.426Z,94
2023-04-29T01:32:06.502Z,95
2023-04-29T01:37:12.629Z,95
2023-04-29T01:42:18.708Z,95.5
2023-04-29T01:47:24.811Z,93
2023-04-29T01:52:30.872Z,94
2023-04-29T01:57:36.994Z,94.5
2023-04-29T02:02:43.162Z,94.5
2023-04-29T02:07:49.176Z,94.5
2023-04-29T02:12:55.284Z,94.5
2023-04-29T02:18:01.401Z,93
2023-04-29T02:23:07.472Z,93.5
2023-04-29T02:28:13.568Z,93.5
2023-04-29T02:33:25.293Z,95
2023-04-29T02:38:37.050Z,95
2023-04-29T02:43:43.115Z,94
2023-04-29T02:48:49.196Z,94.5
2023-04-29T02:53:55.317Z,94.5
2023-04-29T02:59:01.400Z,96
2023-04-29T03:04:07.713Z,96.5
2023-04-29T03:09:13.595Z,96.5
2023-04-29T03:14:19.687Z,96.5
2023-04-29T03:19:25.778Z,97
2023-04-29T03:24:31.864Z,95.5
2023-04-29T03:29:37.957Z,94
2023-04-29T03:34:44.059Z,94.5
2023-04-29T03:39:50.167Z,95
2023-04-29T03:44:56.235Z,95.5
2023-04-29T03:50:02.366Z,95.5
2023-04-29T03:55:08.444Z,95.5
2023-04-29T04:00:14.504Z,96
2023-04-29T04:05:20.586Z,96
2023-04-29T04:10:26.836Z,95.5
2023-04-29T04:15:32.826Z,95.5
2023-04-29T04:20:44.563Z,95.5
2023-04-29T04:25:56.330Z,96
2023-04-29T04:31:02.367Z,96
2023-04-29T04:36:08.474Z,96.5
2023-04-29T04:41:14.555Z,96
2023-04-29T04:46:20.672Z,96
2023-04-29T04:51:26.754Z,96.5
2023-04-29T04:56:32.828Z,97
2023-04-29T05:01:38.977Z,96.5
2023-04-29T05:06:45.029Z,96.5
2023-04-29T05:11:51.151Z,96
2023-04-29T05:16:57.328Z,95
2023-04-29T05:22:03.307Z,96.5
2023-04-29T05:27:09.418Z,97
2023-04-29T05:32:15.508Z,96.5
2023-04-29T05:37:21.606Z,98
2023-04-29T05:42:27.687Z,97.5
2023-04-29T05:47:33.857Z,97.5
2023-04-29T05:52:39.911Z,97
2023-04-29T05:57:45.966Z,96.5
2023-04-29T06:02:58.465Z,97.5
2023-04-29T06:08:03.814Z,96.5
2023-04-29T06:13:15.620Z,97
2023-04-29T06:18:21.626Z,97
2023-04-29T06:23:27.745Z,98
2023-04-29T06:28:33.807Z,96.5
2023-04-29T06:33:39.891Z,95
2023-04-29T06:38:46.013Z,96
2023-04-29T06:43:52.114Z,95.5
2023-04-29T06:48:58.177Z,95
2023-04-29T06:54:04.341Z,96.5
2023-04-29T06:59:10.372Z,97.5
2023-04-29T07:04:16.487Z,97.5
2023-04-29T07:09:22.550Z,95.5
2023-04-29T07:14:28.684Z,97
2023-04-29T07:19:34.762Z,95.5
2023-04-29T07:24:40.836Z,91.5
2023-04-29T07:29:46.949Z,92.5
2023-04-29T07:34:53.384Z,93
2023-04-29T07:39:59.125Z,92
2023-04-29T07:45:05.234Z,91
2023-04-29T07:50:11.307Z,89.5
2023-04-29T07:55:23.019Z,93
2023-04-29T08:00:34.763Z,88
2023-04-29T08:05:40.874Z,84
2023-04-29T08:10:46.963Z,85
2023-04-29T08:15:53.068Z,82.5
2023-04-29T08:20:59.151Z,82
2023-04-29T08:26:05.277Z,85
2023-04-29T08:31:11.363Z,84.5
2023-04-29T08:36:17.426Z,86.5
2023-04-29T08:41:23.563Z,87
2023-04-29T08:46:29.597Z,81
2023-04-29T08:51:35.714Z,86
2023-04-29T08:56:41.802Z,86
2023-04-29T09:01:48.922Z,90
2023-04-29T09:06:54.003Z,89
2023-04-29T09:12:00.130Z,89.5
2023-04-29T09:17:06.192Z,92.5
2023-04-29T09:22:12.274Z,94
2023-04-29T09:27:18.396Z,92
2023-04-29T09:32:24.481Z,91.5
2023-04-29T09:37:30.568Z,90
2023-04-29T09:42:42.327Z,94.5
2023-04-29T09:47:54.114Z,93.5
2023-04-29T09:53:00.188Z,93.5
2023-04-29T09:58:06.246Z,91
2023-04-29T10:03:12.407Z,92
2023-04-29T10:08:18.414Z,90
2023-04-29T10:13:24.493Z,90
2023-04-29T10:18:30.596Z,88
2023-04-29T10:23:36.704Z,88
2023-04-29T10:28:42.774Z,83.5
2023-04-29T10:33:48.889Z,87
2023-04-29T10:38:54.974Z,92
2023-04-29T10:44:02.887Z,88
2023-04-29T10:49:07.142Z,86.5
2023-04-29T10:54:13.265Z,87
2023-04-29T10:59:19.355Z,88
2023-04-29T11:04:25.492Z,88.5
2023-04-29T11:09:31.552Z,81.5
2023-04-29T11:14:37.807Z,86
2023-04-29T11:19:43.750Z,84
2023-04-29T11:24:49.871Z,82
2023-04-29T11:30:01.610Z,84.5
2023-04-29T11:35:07.681Z,87
2023-04-29T11:40:13.782Z,90
2023-04-29T11:45:19.878Z,88.5
2023-04-29T11:50:25.961Z,91
2023-04-29T11:55:32.057Z,90.5
2023-04-29T12:00:38.137Z,91.5
2023-04-29T12:05:44.309Z,91.5
2023-04-29T12:10:50.333Z,92.5
2023-04-29T12:15:56.442Z,93.5
2023-04-29T12:21:02.517Z,92.5
2023-04-29T12:26:08.600Z,94
2023-04-29T12:31:14.725Z,93.5
2023-04-29T12:36:20.819Z,90
2023-04-29T12:41:26.902Z,86.5
2023-04-29T12:46:33.075Z,91
2023-04-29T12:51:39.087Z,90.5
2023-04-29T12:56:45.190Z,91
2023-04-29T13:01:51.285Z,88.5
2023-04-29T13:06:57.371Z,88.5
2023-04-29T13:12:14.666Z,87
2023-04-29T13:17:20.774Z,83.5
2023-04-29T13:22:26.879Z,86.5
2023-04-29T13:27:32.950Z,88
2023-04-29T13:32:44.830Z,82.5
2023-04-29T13:37:45.156Z,79.5
2023-04-29T13:42:59.460Z,81.5
2023-04-29T13:48:08.346Z,83.5
2023-04-29T14:03:15.691Z,86
2023-04-29T14:08:21.721Z,87
2023-04-29T14:13:27.877Z,86
2023-04-29T14:18:33.943Z,87
2023-04-29T14:23:40.024Z,88
2023-04-29T14:28:46.084Z,87.5
2023-04-29T14:33:52.178Z,89.5
2023-04-29T14:38:58.279Z,89.5
2023-04-29T14:44:04.368Z,87
2023-04-29T14:49:16.109Z,89
2023-04-29T14:54:27.841Z,85
2023-04-29T14:59:39.566Z,86
2023-04-29T15:04:45.781Z,89
2023-04-29T15:09:57.405Z,83
2023-04-29T15:15:03.516Z,82
2023-04-29T15:20:09.616Z,82
2023-04-29T15:25:15.695Z,80
2023-04-29T15:30:21.808Z,77.5
2023-04-29T15:35:27.936Z,76.5
2023-04-29T15:40:33.984Z,75
2023-04-29T15:45:40.123Z,76
2023-04-29T15:50:46.164Z,79.5
2023-04-29T15:55:52.268Z,79
2023-04-29T16:00:58.380Z,81
2023-04-29T16:06:04.493Z,80.5
2023-04-29T16:11:10.555Z,81.5
2023-04-29T16:16:16.658Z,81.5
2023-04-29T16:21:22.735Z,80
2023-04-29T16:26:28.829Z,79
2023-04-29T16:31:34.982Z,80
2023-04-29T16:36:41.022Z,82.5
2023-04-29T16:41:47.099Z,84
2023-04-29T16:46:53.195Z,86
2023-04-29T16:52:04.957Z,86.5
2023-04-29T16:57:11.054Z,88.5
2023-04-29T17:02:17.148Z,88
2023-04-29T17:07:23.244Z,89
2023-04-29T17:12:29.327Z,90.5
2023-04-29T17:17:35.425Z,89.5
2023-04-29T17:22:41.522Z,91
2023-04-29T17:27:47.632Z,91
2023-04-29T17:32:53.695Z,90.5
2023-04-29T17:37:59.786Z,91
2023-04-29T17:43:05.886Z,91.5
2023-04-29T17:48:11.961Z,91.5
2023-04-29T17:53:18.062Z,91
2023-04-29T17:58:24.168Z,91
2023-04-29T18:03:30.314Z,91
2023-04-29T18:08:36.450Z,91.5
2023-04-29T18:13:42.424Z,93
2023-04-29T18:18:48.522Z,92.5
2023-04-29T18:23:54.640Z,91
2023-04-29T18:29:00.741Z,92
2023-04-29T18:34:12.446Z,92
2023-04-29T18:39:18.537Z,92
2023-04-29T18:44:25.647Z,92
2023-04-29T18:49:30.739Z,91
2023-04-29T18:54:36.818Z,92
2023-04-29T18:59:42.917Z,92.5
2023-04-29T19:04:49.039Z,92
2023-04-29T19:09:55.272Z,91.5
2023-04-29T19:15:01.207Z,93
2023-04-29T19:20:07.309Z,94.5
2023-04-29T19:25:13.408Z,93
2023-04-29T19:30:19.493Z,94.5
2023-04-29T19:35:25.610Z,93.5
2023-04-29T19:40:31.687Z,93.5
2023-04-29T19:45:37.771Z,93.5
2023-04-29T19:50:43.863Z,93.5
2023-04-29T19:55:51.653Z,94
2023-04-29T20:00:56.172Z,93.5
2023-04-29T20:06:02.165Z,94
2023-04-29T20:11:08.235Z,94
2023-04-29T20:16:19.997Z,93.5
2023-04-29T20:21:31.697Z,93
2023-04-29T20:26:43.431Z,92.5
2023-04-29T20:31:55.165Z,93
2023-04-29T20:37:01.257Z,93.5
2023-04-29T20:42:07.355Z,94.5
2023-04-29T20:47:13.458Z,94.5
2023-04-29T20:52:19.553Z,93
2023-04-29T20:57:25.632Z,93.5
2023-04-29T21:02:31.802Z,94
2023-04-29T21:07:37.845Z,93.5
2023-04-29T21:12:43.916Z,93
2023-04-29T21:17:50.100Z,93.5
2023-04-29T21:22:56.145Z,94
2023-04-29T21:28:02.233Z,94
2023-04-29T21:33:08.328Z,94.5
2023-04-29T21:38:14.410Z,94.5
2023-04-29T21:43:20.496Z,95
2023-04-29T21:48:26.589Z,94
2023-04-29T21:53:32.685Z,94
2023-04-29T21:58:38.773Z,94.5
2023-04-29T22:03:44.856Z,95
2023-04-29T22:08:50.966Z,95.5
2023-04-29T22:14:02.708Z,95.5
2023-04-29T22:19:14.426Z,95
2023-04-29T22:24:20.536Z,95
2023-04-29T22:29:56.944Z,94.5
2023-04-29T22:34:32.806Z,95
2023-04-29T22:39:38.812Z,94.5
2023-04-29T22:44:44.914Z,94
2023-04-29T22:49:51.003Z,94
2023-04-29T22:54:58.116Z,94.5
2023-04-29T23:00:03.182Z,95
2023-04-29T23:05:09.293Z,95
2023-04-29T23:10:15.374Z,94.5
2023-04-29T23:15:21.545Z,94.5
2023-04-29T23:20:27.602Z,94.5
2023-04-29T23:25:33.679Z,94
2023-04-29T23:30:39.761Z,94.5
2023-04-29T23:35:45.929Z,94.5
2023-04-29T23:40:51.961Z,94.5
2023-04-29T23:45:58.077Z,95.5
2023-04-29T23:51:04.127Z,94
2023-04-29T23:56:10.205Z,94.5
